Time;durP1;ratioP1;P1;durP2;ratioP2;P2;SDS_P1;SDS_P2;PMS_P1;PMS_P2;Temp;Humidity;BMP_temperature;BMP_pressure;BME280_temperature;BME280_humidity;BME280_pressure;Samples;Min_cycle;Max_cycle;Signal;HPM_P1;HPM_P2
2022/02/23 09:48:20;;;;;;;49.97;7.32;;;;;;;5.95;100.00;100921.44;5803418;24;20072;31
2022/02/23 10:29:56;;;;;;;41.63;6.03;;;;;;;5.02;100.00;100750.00;5782978;24;20050;-81
2022/02/23 10:37:31;;;;;;;36.08;5.25;;;;;;;4.78;100.00;100732.97;5553457;24;20040;-85
2022/02/23 11:27:23;;;;;;;32.67;5.82;;;;;;;5.75;100.00;100867.47;5251231;24;20083;-84
2022/02/23 11:38:18;;;;;;;32.53;4.55;;;;;;;6.97;100.00;101010.91;5325140;24;20039;-83
2022/02/23 11:40:48;;;;;;;28.27;4.65;;;;;;;7.03;100.00;101020.94;4796519;29;20047;-84
2022/02/23 11:43:24;;;;;;;35.83;5.05;;;;;;;6.99;100.00;101010.75;4789292;29;20046;-82
2022/02/23 12:04:16;;;;;;;34.05;4.90;;;;;;;5.79;100.00;100833.28;4790824;29;20036;-83
2022/02/23 12:09:49;;;;;;;31.20;4.60;;;;;;;5.86;100.00;100835.13;4798615;29;19937;-83
2022/02/23 12:12:33;;;;;;;27.50;4.63;;;;;;;5.90;100.00;100832.94;4786199;29;20027;-82
2022/02/23 12:15:03;;;;;;;29.67;5.05;;;;;;;7.36;100.00;101058.31;4786912;30;20090;-82
2022/02/23 12:18:07;;;;;;;34.72;5.72;;;;;;;6.77;100.00;100953.44;4785232;30;20041;-82
2022/02/23 12:20:35;;;;;;;33.67;4.68;;;;;;;7.42;100.00;101048.78;4776002;29;20027;-80
2022/02/23 12:23:02;;;;;;;32.80;4.55;;;;;;;7.01;100.00;100974.78;4785917;29;20016;-83
2022/02/23 12:25:50;;;;;;;39.97;5.35;;;;;;;7.50;100.00;101040.69;4788192;30;20047;-83
2022/02/23 12:28:17;;;;;;;28.00;4.82;;;;;;;7.49;100.00;101053.25;4788047;29;20057;-82
2022/02/23 12:31:09;;;;;;;28.63;4.55;;;;;;;6.68;100.00;100906.34;4794475;29;20016;-82
2022/02/23 12:33:37;;;;;;;36.10;5.32;;;;;;;7.48;100.00;101021.28;4807837;29;20011;-84
2022/02/23 12:38:44;;;;;;;30.38;4.40;;;;;;;6.82;100.00;100918.97;5163886;24;20040;-85
2022/02/23 13:35:29;;;;;;;34.97;5.32;;;;;;;7.22;100.00;100962.69;5660651;24;20263;-76
2022/02/23 15:00:31;;;;;;;34.17;5.20;;;;;;;6.40;100.00;100943.31;5773134;24;20371;31
2022/02/23 15:15:53;;;;;;;36.78;5.38;;;;;;;5.27;100.00;100767.72;4816492;24;19918;-81
2022/02/23 16:02:17;;;;;;;31.02;4.72;;;;;;;5.65;100.00;100897.00;5400061;24;20971;31
2022/02/23 16:12:30;;;;;;;30.77;4.35;;;;;;;4.11;100.00;100674.31;5706692;24;20018;-80
2022/02/23 16:14:55;;;;;;;36.28;5.10;;;;;;;4.78;100.00;100783.59;4992275;24;20037;-79
2022/02/23 16:25:07;;;;;;;37.88;5.30;;;;;;;3.48;100.00;100571.72;5076015;24;20063;-85
2022/02/23 16:27:33;;;;;;;38.80;5.10;;;;;;;3.83;100.00;100640.88;4790839;29;20050;-84
2022/02/23 16:32:33;;;;;;;29.85;4.68;;;;;;;3.46;100.00;100565.72;5271202;24;20063;-83
2022/02/23 16:34:59;;;;;;;36.65;5.13;;;;;;;5.31;100.00;100841.06;4791055;30;20088;-85
2022/02/23 16:37:25;;;;;;;28.92;4.25;;;;;;;4.34;100.00;100684.34;4792724;29;20032;-81
2022/02/23 16:39:50;;;;;;;30.98;4.30;;;;;;;5.36;100.00;100859.25;4807229;29;20028;-83
2022/02/23 16:44:51;;;;;;;33.25;4.40;;;;;;;4.66;100.00;100737.75;5214234;24;20063;-82
2022/02/23 16:47:16;;;;;;;34.15;4.65;;;;;;;4.68;100.00;100730.44;4803600;29;20270;-80
2022/02/23 16:49:42;;;;;;;28.52;4.18;;;;;;;4.20;100.00;100669.81;4804167;29;20038;-79
2022/02/23 16:52:09;;;;;;;27.67;4.40;;;;;;;3.83;100.00;100595.66;4794058;29;20082;-81
2022/02/23 16:54:35;;;;;;;31.95;4.53;;;;;;;3.78;100.00;100595.31;4795797;29;20052;-80
2022/02/23 16:57:00;;;;;;;36.78;5.35;;;;;;;4.06;100.00;100615.34;4793002;29;20060;-83
2022/02/23 16:59:26;;;;;;;31.95;4.75;;;;;;;4.47;100.00;100680.25;4967462;24;20044;-82
2022/02/23 17:01:51;;;;;;;23.40;3.80;;;;;;;3.81;100.00;100592.28;4795144;29;20020;-86
2022/02/23 17:06:53;;;;;;;30.13;4.53;;;;;;;4.04;100.00;100627.16;5476404;24;20042;-79
2022/02/23 17:11:54;;;;;;;30.30;4.18;;;;;;;4.71;100.00;100745.28;4798262;24;20099;-85
2022/02/23 17:16:55;;;;;;;31.77;4.43;;;;;;;5.02;100.00;100790.84;4854668;24;20047;-83
2022/02/23 17:19:20;;;;;;;26.50;4.35;;;;;;;4.61;100.00;100713.44;4789046;30;20052;-82
2022/02/23 17:21:47;;;;;;;26.95;3.75;;;;;;;4.76;100.00;100726.13;4806613;30;20036;-83
2022/02/23 17:24:12;;;;;;;28.77;4.30;;;;;;;3.87;100.00;100565.03;4790863;29;20028;-84
2022/02/23 17:26:38;;;;;;;28.20;4.68;;;;;;;4.03;100.00;100610.34;4946238;24;20076;-83
2022/02/23 17:29:05;;;;;;;22.58;3.67;;;;;;;4.42;100.00;100663.06;4775223;30;20032;-83
2022/02/23 17:31:31;;;;;;;35.15;4.30;;;;;;;4.44;100.00;100682.41;4772226;30;20084;-82
2022/02/23 17:34:00;;;;;;;27.90;4.15;;;;;;;3.62;100.00;100540.19;4774213;30;20101;-84
2022/02/23 17:39:01;;;;;;;27.48;3.80;;;;;;;4.26;100.00;100644.38;4889578;24;20074;-83
2022/02/23 17:41:26;;;;;;;22.42;3.53;;;;;;;5.35;100.00;100813.06;4780720;30;20040;-80
2022/02/23 17:43:52;;;;;;;30.27;4.45;;;;;;;4.45;100.00;100674.25;4786839;30;20023;-81
2022/02/23 17:46:18;;;;;;;20.75;4.10;;;;;;;5.42;100.00;100814.06;4789772;29;20030;-84
2022/02/23 17:48:43;;;;;;;25.17;4.10;;;;;;;3.65;100.00;100546.03;4789697;29;20038;-84
2022/02/23 17:56:20;;;;;;;28.45;4.28;;;;;;;4.41;100.00;100637.44;4975903;24;20052;-86
2022/02/23 17:58:45;;;;;;;28.45;4.70;;;;;;;5.04;100.00;100735.50;4892688;24;20091;-82
2022/02/23 18:01:11;;;;;;;27.20;4.70;;;;;;;3.62;100.00;100503.78;4788509;29;20036;-84
2022/02/23 18:03:37;;;;;;;28.60;5.88;;;;;;;3.59;100.00;100508.59;4774027;29;20490;-84
2022/02/23 18:06:03;;;;;;;35.47;11.45;;;;;;;3.58;100.00;100486.47;4775086;30;20008;-80
2022/02/23 18:08:30;;;;;;;28.52;8.43;;;;;;;5.38;100.00;100785.22;4788277;29;20019;-84
2022/02/23 18:10:56;;;;;;;33.50;7.85;;;;;;;3.80;100.00;100522.28;4789718;29;20039;-84
2022/02/23 18:13:22;;;;;;;18.98;3.97;;;;;;;3.98;100.00;100540.81;4787919;30;20028;-83
2022/02/23 18:15:47;;;;;;;32.28;9.13;;;;;;;5.08;100.00;100701.34;4786343;29;20059;-84
2022/02/23 18:18:13;;;;;;;27.95;5.28;;;;;;;4.18;100.00;100554.66;5201139;24;20030;-83
2022/02/23 18:20:39;;;;;;;32.42;4.05;;;;;;;4.85;100.00;100645.16;4805768;29;20035;-83
2022/02/23 18:25:41;;;;;;;22.42;3.67;;;;;;;4.16;100.00;100533.50;4849142;24;20276;-82
2022/02/23 18:28:07;;;;;;;27.13;4.32;;;;;;;3.50;100.00;100433.22;4811711;29;20020;-82
2022/02/23 18:30:34;;;;;;;29.58;4.75;;;;;;;3.59;100.00;100458.88;4804526;29;20114;-82
2022/02/23 18:33:00;;;;;;;24.98;5.05;;;;;;;5.11;100.00;100706.34;4851619;24;20097;-83
2022/02/23 18:35:25;;;;;;;29.30;3.85;;;;;;;5.08;100.00;100704.84;4789806;29;20032;-82
2022/02/23 18:37:51;;;;;;;21.52;3.72;;;;;;;5.10;100.00;100700.19;4790961;30;20065;-84
2022/02/23 18:40:16;;;;;;;25.73;3.50;;;;;;;4.67;100.00;100632.81;4788186;29;20062;-84
2022/02/23 18:42:42;;;;;;;25.17;4.43;;;;;;;5.11;100.00;100699.16;4796291;29;20034;-83
2022/02/23 18:45:08;;;;;;;22.73;3.45;;;;;;;5.14;100.00;100696.19;4790271;30;20032;-83
2022/02/23 18:47:33;;;;;;;23.35;3.20;;;;;;;5.19;100.00;100688.50;4783346;30;20099;-84
2022/02/23 18:49:59;;;;;;;32.25;4.70;;;;;;;4.28;100.00;100552.69;4849211;24;20062;-84
2022/02/23 18:52:24;;;;;;;27.60;4.15;;;;;;;4.70;100.00;100599.66;4842623;24;20096;-81
2022/02/23 18:54:50;;;;;;;23.40;3.83;;;;;;;3.73;100.00;100450.25;4802511;29;20046;-82
2022/02/23 18:57:16;;;;;;;22.90;3.05;;;;;;;4.03;100.00;100490.56;4800779;29;20015;-82
2022/02/23 19:02:18;;;;;;;25.92;5.15;;;;;;;5.29;100.00;100666.16;4993807;24;20097;-82
2022/02/23 19:04:45;;;;;;;23.83;3.92;;;;;;;4.35;100.00;100504.91;4840438;24;20048;-83
2022/02/23 19:07:10;;;;;;;26.77;3.75;;;;;;;5.33;100.00;100649.66;4809215;29;20019;-84
2022/02/23 19:09:36;;;;;;;18.40;3.10;;;;;;;4.74;100.00;100562.88;4808468;30;20035;-83
2022/02/23 19:12:02;;;;;;;30.20;4.10;;;;;;;4.35;100.00;100496.91;4795209;29;20016;-84
2022/02/23 19:14:28;;;;;;;24.73;3.72;;;;;;;4.02;100.00;100430.31;4788887;30;20103;-83
2022/02/23 19:16:53;;;;;;;32.42;4.82;;;;;;;5.01;100.00;100583.00;4929021;24;20013;-77
2022/02/23 19:19:19;;;;;;;24.20;3.28;;;;;;;5.26;100.00;100623.81;4772821;30;20051;-83
2022/02/23 19:21:45;;;;;;;21.35;3.88;;;;;;;3.89;100.00;100403.38;4795899;30;20019;-83
2022/02/23 19:24:11;;;;;;;24.48;3.17;;;;;;;4.85;100.00;100527.88;4772327;29;20032;-81
2022/02/23 19:26:37;;;;;;;28.02;3.85;;;;;;;3.99;100.00;100382.72;4763184;30;20037;-81
2022/02/23 19:29:06;;;;;;;20.17;3.50;;;;;;;5.52;100.00;100642.28;4769259;30;20100;-82
2022/02/23 19:31:31;;;;;;;19.35;3.28;;;;;;;3.87;100.00;100360.09;4773455;30;20027;-81
2022/02/23 19:33:58;;;;;;;23.38;3.88;;;;;;;4.46;100.00;100460.09;4786062;30;20047;-81
2022/02/23 19:36:24;;;;;;;22.80;3.58;;;;;;;5.44;100.00;100621.78;4782513;30;20084;-80
2022/02/23 19:38:50;;;;;;;24.50;3.15;;;;;;;4.24;100.00;100424.34;4772773;30;20142;-83
2022/02/23 19:41:17;;;;;;;26.02;3.67;;;;;;;4.54;100.00;100448.63;4757347;30;20041;-81
2022/02/23 19:43:42;;;;;;;29.20;4.13;;;;;;;5.45;100.00;100607.44;4753563;30;20099;-82
2022/02/23 19:46:08;;;;;;;27.23;4.00;;;;;;;4.29;100.00;100437.13;4771300;30;20016;-82
2022/02/23 19:48:34;;;;;;;20.13;4.03;;;;;;;5.47;100.00;100636.63;4768619;30;20020;-81
2022/02/23 19:51:01;;;;;;;26.20;4.03;;;;;;;4.84;100.00;100511.03;4768842;30;20036;-82
2022/02/23 19:53:26;;;;;;;23.65;3.50;;;;;;;4.37;100.00;100446.94;4763142;30;20101;-80
2022/02/23 19:55:52;;;;;;;25.85;3.90;;;;;;;5.19;100.00;100552.44;4762348;30;20024;-82
2022/02/23 19:58:26;;;;;;;27.98;4.70;;;;;;;4.60;100.00;100461.28;4767177;30;20044;-80
2022/02/23 20:00:55;;;;;;;27.43;4.57;;;;;;;4.24;100.00;100402.22;4774478;30;20047;-83
2022/02/23 20:05:56;;;;;;;27.08;4.32;;;;;;;5.34;100.00;100551.78;4816806;24;20056;-82
2022/02/23 20:08:21;;;;;;;28.25;4.18;;;;;;;5.42;100.00;100568.56;4771766;30;20096;-83
2022/02/23 20:10:54;;;;;;;25.17;3.50;;;;;;;5.41;100.00;100571.41;4773268;30;20038;-82
2022/02/23 20:13:21;;;;;;;33.40;4.78;;;;;;;5.31;100.00;100557.44;4776711;30;20036;-82
2022/02/23 20:15:47;;;;;;;30.05;3.90;;;;;;;5.45;100.00;100555.91;4787813;30;20042;-83
2022/02/23 20:18:13;;;;;;;26.13;4.35;;;;;;;5.33;100.00;100545.59;4777341;30;20027;-83
2022/02/23 20:20:39;;;;;;;31.02;4.68;;;;;;;5.45;100.00;100559.41;4777662;30;20055;-82
2022/02/23 20:23:05;;;;;;;29.75;4.70;;;;;;;5.40;100.00;100559.09;4784959;29;20039;-82
2022/02/23 20:25:31;;;;;;;27.58;4.28;;;;;;;5.43;100.00;100548.06;4780531;30;20375;-81
2022/02/23 20:27:56;;;;;;;25.88;4.30;;;;;;;5.39;100.00;100536.88;4784434;29;20040;-82
2022/02/23 20:30:22;;;;;;;33.53;4.97;;;;;;;5.15;100.00;100503.13;4782746;30;20127;-82
2022/02/23 20:32:48;;;;;;;26.35;4.38;;;;;;;5.44;100.00;100539.06;4767841;30;20047;-81
2022/02/23 20:35:14;;;;;;;32.33;4.53;;;;;;;5.30;100.00;100516.59;4766785;30;20051;-81
2022/02/23 20:37:40;;;;;;;27.20;4.97;;;;;;;5.13;100.00;100477.63;4772631;30;20016;-81
2022/02/23 20:40:08;;;;;;;41.88;7.32;;;;;;;5.40;100.00;100522.56;4780045;29;20012;-83
2022/02/23 20:42:34;;;;;;;26.85;5.00;;;;;;;5.33;100.00;100502.91;4775574;30;20060;-84
2022/02/23 20:45:01;;;;;;;33.70;4.68;;;;;;;5.34;100.00;100495.75;4773312;30;20051;-84
2022/02/23 20:47:28;;;;;;;48.55;6.85;;;;;;;5.24;100.00;100477.28;4777968;30;20032;-84
2022/02/23 20:49:54;;;;;;;33.60;5.53;;;;;;;5.42;100.00;100499.19;4780453;30;20012;-81
2022/02/23 20:52:20;;;;;;;39.97;5.35;;;;;;;5.42;100.00;100493.84;4768031;29;20016;-83
2022/02/23 20:54:45;;;;;;;32.38;5.80;;;;;;;5.37;100.00;100480.22;4775567;30;20047;-83
2022/02/23 20:57:11;;;;;;;34.78;6.03;;;;;;;5.41;100.00;100480.69;4761213;30;20058;-83
2022/02/23 20:59:36;;;;;;;28.10;4.40;;;;;;;5.43;100.00;100486.72;4778686;30;20048;-84
2022/02/23 21:02:01;;;;;;;32.85;4.93;;;;;;;5.45;100.00;100476.66;4780123;29;20121;-81
2022/02/23 21:04:27;;;;;;;34.75;5.05;;;;;;;5.33;100.00;100472.72;4777005;29;20100;-87
2022/02/23 21:06:52;;;;;;;28.38;4.25;;;;;;;5.49;100.00;100490.50;5011907;24;20055;-85
2022/02/23 21:09:18;;;;;;;39.05;5.07;;;;;;;5.39;100.00;100462.19;4807593;29;20038;-85
2022/02/23 21:14:20;;;;;;;32.75;4.43;;;;;;;5.24;100.00;100437.25;4814850;24;20058;-83
2022/02/23 21:19:21;;;;;;;39.03;5.40;;;;;;;3.58;100.00;100151.28;4849022;24;20600;-82
2022/02/23 21:21:47;;;;;;;33.78;5.18;;;;;;;4.47;100.00;100277.94;4801191;29;20032;-83
2022/02/23 21:24:15;;;;;;;36.83;5.40;;;;;;;5.23;100.00;100403.59;4798473;29;20023;-83
2022/02/23 21:26:40;;;;;;;33.38;5.38;;;;;;;5.52;100.00;100436.78;4798763;30;20032;-85
2022/02/23 21:29:09;;;;;;;43.00;5.70;;;;;;;5.04;100.00;100358.69;4791185;29;20095;-84
2022/02/23 21:31:35;;;;;;;29.35;4.22;;;;;;;5.55;100.00;100417.75;4796035;29;20058;-84
2022/02/23 21:41:47;;;;;;;34.28;4.70;;;;;;;4.57;100.00;100259.09;5197034;24;20477;-82
2022/02/23 21:44:14;;;;;;;28.52;4.13;;;;;;;3.89;100.00;100156.66;4811240;29;20039;-84
2022/02/23 21:51:50;;;;;;;20.85;4.10;;;;;;;4.26;100.00;100167.66;5381776;24;20063;-83
2022/02/23 21:54:17;;;;;;;33.55;4.60;;;;;;;4.35;100.00;100201.25;4800038;29;20032;-81
2022/02/23 21:56:43;;;;;;;30.10;5.20;;;;;;;4.43;100.00;100201.19;4811801;29;20027;-83
2022/02/23 21:59:09;;;;;;;24.13;4.05;;;;;;;4.43;100.00;100209.19;4814959;29;20059;-85
2022/02/23 22:01:34;;;;;;;27.02;4.28;;;;;;;4.61;100.00;100225.75;4815564;29;20069;-81
2022/02/23 22:04:00;;;;;;;25.63;3.90;;;;;;;3.79;100.00;100104.66;4805796;29;20036;-82
2022/02/23 22:06:28;;;;;;;29.75;4.53;;;;;;;4.97;100.00;100275.03;4797451;29;20054;-81
2022/02/23 22:08:55;;;;;;;25.17;3.60;;;;;;;4.82;100.00;100240.31;4799321;29;20027;-82
2022/02/23 22:11:21;;;;;;;26.95;4.40;;;;;;;3.40;100.00;100017.66;4802124;29;20028;-82
2022/02/23 22:13:46;;;;;;;39.00;5.40;;;;;;;4.23;100.00;100145.69;4805423;29;20036;-84
2022/02/23 22:16:13;;;;;;;30.88;4.15;;;;;;;4.57;100.00;100195.16;4805930;29;20028;-85
2022/02/23 22:18:39;;;;;;;32.08;4.55;;;;;;;4.55;100.00;100167.84;4811577;29;20020;-83
2022/02/23 22:21:05;;;;;;;40.58;5.30;;;;;;;4.15;100.00;100121.78;4814242;29;20031;-85
2022/02/23 22:23:30;;;;;;;34.83;4.95;;;;;;;4.34;100.00;100151.63;4804609;29;20030;-84
2022/02/23 22:25:56;;;;;;;28.98;4.68;;;;;;;3.98;100.00;100086.44;4810498;29;20012;-83
2022/02/23 22:28:22;;;;;;;26.90;4.72;;;;;;;4.92;100.00;100214.25;4827921;29;20022;-84
2022/02/23 22:30:47;;;;;;;26.77;4.03;;;;;;;3.87;100.00;100048.72;4817685;29;20099;-83
2022/02/23 22:33:13;;;;;;;35.33;4.90;;;;;;;5.59;100.00;100323.78;4807957;29;20052;-85
2022/02/23 22:35:39;;;;;;;35.17;4.05;;;;;;;5.69;100.00;100336.06;4803563;29;20036;-86
2022/02/23 22:38:04;;;;;;;27.52;4.00;;;;;;;4.39;100.00;100135.97;4793393;30;20069;-83
2022/02/23 22:40:30;;;;;;;31.65;4.20;;;;;;;5.61;100.00;100343.13;4803443;29;20015;-84
2022/02/23 22:42:56;;;;;;;33.08;5.05;;;;;;;5.54;100.00;100315.50;4792603;29;20035;-84
2022/02/23 22:45:21;;;;;;;29.58;4.88;;;;;;;4.93;100.00;100232.75;4805910;29;20007;-84
2022/02/23 22:47:47;;;;;;;38.53;5.55;;;;;;;3.97;100.00;100057.31;4822497;29;20052;-84
2022/02/23 22:50:13;;;;;;;34.33;4.05;;;;;;;5.05;100.00;100219.81;4815863;29;20026;-84
2022/02/23 22:52:41;;;;;;;32.28;4.95;;;;;;;4.65;100.00;100141.78;4806909;29;20043;-84
2022/02/23 22:55:07;;;;;;;34.45;4.78;;;;;;;4.26;100.00;100101.91;4810787;29;20039;-83
2022/02/23 22:57:33;;;;;;;33.83;5.28;;;;;;;4.05;100.00;100045.81;4811945;29;20102;-84
2022/02/23 22:59:59;;;;;;;37.20;5.18;;;;;;;5.05;100.00;100214.50;4813967;29;20011;-83
2022/02/23 23:02:24;;;;;;;31.98;4.80;;;;;;;4.54;100.00;100104.91;4805718;29;20016;-84
2022/02/23 23:07:34;;;;;;;33.25;5.72;;;;;;;3.98;100.00;100030.53;4797995;29;20062;-84
2022/02/23 23:10:01;;;;;;;37.78;5.88;;;;;;;4.12;100.00;100036.09;4805363;29;20031;-85
2022/02/23 23:12:26;;;;;;;37.30;5.35;;;;;;;4.41;100.00;100072.69;4810178;29;20020;-84
2022/02/23 23:14:53;;;;;;;33.72;5.25;;;;;;;4.08;100.00;100014.34;4809173;29;20034;-84
2022/02/23 23:17:19;;;;;;;30.38;4.47;;;;;;;4.71;100.00;100109.13;4812531;29;20095;-84
2022/02/23 23:19:44;;;;;;;30.67;5.22;;;;;;;5.69;100.00;100264.84;4822584;29;20039;-84
2022/02/23 23:22:10;;;;;;;41.83;6.25;;;;;;;4.09;100.00;100015.16;4810610;29;20026;-84
2022/02/23 23:24:36;;;;;;;37.45;5.88;;;;;;;5.05;100.00;100142.50;4810916;29;20027;-83
2022/02/23 23:27:01;;;;;;;32.17;5.85;;;;;;;4.27;100.00;100015.69;4811380;29;20028;-84
2022/02/23 23:29:27;;;;;;;43.55;6.13;;;;;;;5.43;100.00;100185.19;4810855;29;20051;-84
2022/02/23 23:31:53;;;;;;;32.30;5.20;;;;;;;5.79;100.00;100253.91;4810018;29;20020;-84
2022/02/23 23:34:18;;;;;;;33.28;4.85;;;;;;;4.38;100.00;100025.13;4810161;29;20068;-83
2022/02/23 23:36:44;;;;;;;30.33;4.82;;;;;;;5.77;100.00;100221.22;4822984;29;20030;-83
2022/02/23 23:39:11;;;;;;;39.78;5.35;;;;;;;5.76;100.00;100198.19;4828652;29;20015;-84
2022/02/23 23:41:36;;;;;;;38.85;6.22;;;;;;;4.71;100.00;100037.16;4812019;29;20031;-84
2022/02/23 23:44:02;;;;;;;39.78;6.53;;;;;;;5.70;100.00;100190.94;4810556;29;20030;-84
2022/02/23 23:46:28;;;;;;;31.52;5.57;;;;;;;5.78;100.00;100223.72;4811744;29;20045;-83
2022/02/23 23:48:53;;;;;;;31.90;6.55;;;;;;;5.11;100.00;100106.28;4812157;29;20023;-83
2022/02/23 23:51:20;;;;;;;37.42;5.20;;;;;;;4.11;100.00;99928.78;4808650;29;20055;-83
2022/02/23 23:53:45;;;;;;;41.13;4.93;;;;;;;3.93;100.00;99925.59;4808507;29;20007;-84
2022/02/23 23:56:11;;;;;;;38.30;5.07;;;;;;;4.34;100.00;99986.50;4809852;29;20023;-85
2022/02/23 23:58:37;;;;;;;36.80;5.72;;;;;;;4.94;100.00;100073.63;4811103;29;20040;-85
